EKVG

Vagar Airport

Vagar, Denmark
METAR EKVG 101550Z AUTO 12014KT 9999NDV BKN033/// 02/M02 Q1022 RMK BKN033/// WIND 850FT 13019KT
Observed Flight Rules
Dec-10 @ 15:50 UTC (31 minutes ago)
Wind Clouds
120° at 14 knots
  • Broken at 3,300' AGL
Temperatures Readings
Current 2°C / 36°F
Dewpoint -2°C / 28°F
Humidity 75%
Altimeter 30.18" Hg
Pressure 1022 hPa
Elevation 85
METAR EKVG 101550Z AUTO 12014KT 9999NDV BKN033/// 02/M02 Q1022 RMK BKN033/// WIND 850FT 13019KT
Observed Flight Rules
Dec-10 @ 15:50 UTC
(31 minutes ago)
Wind
120° at 14 knots
Clouds
  • Broken at 3,300' AGL
Temperature Dewpoint
2°C / 36°F -2°C / 28°F
Humidity Altimeter Pressure
75% 30.18" Hg 1022 hPa